createdAt,value
2018-09-13T00:02:02.195Z,101805.73
2018-09-13T00:04:31.175Z,101807.95
2018-09-13T00:07:00.210Z,101807.55
2018-09-13T00:09:29.200Z,101808.37
2018-09-13T00:11:58.256Z,101799.73
2018-09-13T00:14:27.252Z,101796.25
2018-09-13T00:16:56.269Z,101800.13
2018-09-13T00:19:25.317Z,101799.16
2018-09-13T00:21:54.718Z,101800.14
2018-09-13T00:24:24.162Z,101794.52
2018-09-13T00:26:53.383Z,101803.61
2018-09-13T00:29:22.412Z,101801.42
2018-09-13T00:31:51.718Z,101795.81
2018-09-13T00:34:21.075Z,101802.78
2018-09-13T00:36:50.616Z,101813.58
2018-09-13T00:39:19.629Z,101819.27
2018-09-13T00:41:48.667Z,101817.08
2018-09-13T00:44:17.737Z,101815.34
2018-09-13T00:46:46.784Z,101815.38
2018-09-13T00:49:15.810Z,101808.75
2018-09-13T00:51:44.831Z,101815.30
2018-09-13T00:54:14.129Z,101800.14
2018-09-13T00:56:43.130Z,101815.08
2018-09-13T00:59:12.233Z,101808.27
2018-09-13T01:01:41.215Z,101803.13
2018-09-13T01:04:10.251Z,101807.48
2018-09-13T01:06:39.252Z,101818.62
2018-09-13T01:09:10.117Z,101817.66
2018-09-13T01:11:39.475Z,101819.58
2018-09-13T01:14:08.501Z,101817.90
2018-09-13T01:16:37.802Z,101814.88
2018-09-13T01:19:06.842Z,101798.39
2018-09-13T01:21:36.371Z,101798.36
2018-09-13T01:24:05.909Z,101804.88
2018-09-13T01:26:34.930Z,101818.80
2018-09-13T01:29:04.149Z,101823.59
2018-09-13T01:31:33.158Z,101820.56
2018-09-13T01:34:02.458Z,101811.80
2018-09-13T01:36:31.562Z,101809.69
2018-09-13T01:39:00.736Z,101806.66
2018-09-13T01:41:29.751Z,101815.77
2018-09-13T01:43:59.003Z,101815.70
2018-09-13T01:46:28.107Z,101816.59
2018-09-13T01:48:57.447Z,101831.87
2018-09-13T01:51:26.724Z,101820.98
2018-09-13T01:53:55.759Z,101820.98
2018-09-13T02:01:11.292Z,101824.28
2018-09-13T02:03:40.535Z,101817.02
2018-09-13T02:06:09.772Z,101815.67
2018-09-13T02:08:38.790Z,101820.34
2018-09-13T02:11:07.797Z,101825.66
2018-09-13T02:13:36.824Z,101808.38
2018-09-13T02:16:05.961Z,101820.52
2018-09-13T02:18:35.015Z,101833.52
2018-09-13T02:21:04.319Z,101836.14
2018-09-13T02:23:33.646Z,101832.69
2018-09-13T02:26:02.662Z,101831.84
2018-09-13T02:28:31.788Z,101827.48
2018-09-13T02:31:00.808Z,101820.53
2018-09-13T02:33:29.817Z,101814.48
2018-09-13T02:35:58.905Z,101808.84
2018-09-13T02:38:27.928Z,101806.25
2018-09-13T02:40:57.255Z,101807.97
2018-09-13T02:43:26.797Z,101801.89
2018-09-13T02:45:55.941Z,101798.67
2018-09-13T02:48:25.271Z,101810.84
2018-09-13T02:50:55.393Z,101810.70
2018-09-13T02:53:24.713Z,101817.69
2018-09-13T02:55:53.853Z,101822.58
2018-09-13T02:58:22.897Z,101819.63
2018-09-13T03:00:52.207Z,101822.70
2018-09-13T03:03:21.327Z,101817.05
2018-09-13T03:05:50.365Z,101823.98
2018-09-13T03:08:19.762Z,101822.61
2018-09-13T03:10:49.039Z,101833.13
2018-09-13T03:13:18.148Z,101828.47
2018-09-13T03:15:47.140Z,101831.95
2018-09-13T03:18:16.684Z,101835.38
2018-09-13T03:20:45.688Z,101833.55
2018-09-13T03:23:14.698Z,101828.62
2018-09-13T03:25:43.816Z,101827.73
2018-09-13T03:28:13.047Z,101825.54
2018-09-13T03:30:42.267Z,101818.80
2018-09-13T03:33:11.426Z,101817.37
2018-09-13T03:35:40.479Z,101824.16
2018-09-13T03:38:09.480Z,101823.64
2018-09-13T03:40:38.479Z,101815.46
2018-09-13T03:43:07.507Z,101811.12
2018-09-13T03:45:36.971Z,101811.91
2018-09-13T03:48:05.980Z,101806.55
2018-09-13T03:50:35.443Z,101804.81
2018-09-13T03:53:04.470Z,101796.53
2018-09-13T03:55:33.474Z,101805.69
2018-09-13T03:58:02.495Z,101792.64
2018-09-13T04:00:31.526Z,101801.70
2018-09-13T04:03:00.551Z,101804.08
2018-09-13T04:05:29.707Z,101804.16
2018-09-13T04:07:58.787Z,101803.41
2018-09-13T04:10:28.018Z,101800.02
2018-09-13T04:12:57.472Z,101798.25
2018-09-13T04:15:26.612Z,101794.03
2018-09-13T04:17:55.802Z,101801.93
2018-09-13T04:20:24.831Z,101803.03
2018-09-13T04:22:54.011Z,101798.83
2018-09-13T04:25:23.049Z,101801.27
2018-09-13T04:27:52.553Z,101803.11
2018-09-13T04:30:21.596Z,101800.06
2018-09-13T04:32:50.824Z,101816.20
2018-09-13T04:35:19.829Z,101808.02
2018-09-13T04:37:48.940Z,101808.00
2018-09-13T04:40:17.967Z,101813.55
2018-09-13T04:42:47.748Z,101816.28
2018-09-13T04:45:16.778Z,101814.07
2018-09-13T04:47:45.805Z,101815.38
2018-09-13T04:50:14.871Z,101819.16
2018-09-13T04:52:43.882Z,101812.25
2018-09-13T04:55:12.902Z,101805.71
2018-09-13T04:57:42.353Z,101812.89
2018-09-13T05:00:11.767Z,101806.23
2018-09-13T05:02:40.729Z,101805.48
2018-09-13T05:05:09.903Z,101809.41
2018-09-13T05:07:38.914Z,101800.97
2018-09-13T05:10:08.426Z,101799.33
2018-09-13T05:12:37.435Z,101804.22
2018-09-13T05:15:06.915Z,101814.09
2018-09-13T05:17:37.231Z,101813.92
2018-09-13T05:20:06.899Z,101821.87
2018-09-13T05:22:36.476Z,101821.95
2018-09-13T05:25:05.755Z,101827.33
2018-09-13T05:27:35.199Z,101834.27
2018-09-13T05:30:05.464Z,101836.63
2018-09-13T05:32:34.737Z,101829.48
2018-09-13T05:35:03.786Z,101826.96
2018-09-13T05:37:33.051Z,101816.78
2018-09-13T05:40:02.270Z,101814.34
2018-09-13T05:42:31.262Z,101813.20
2018-09-13T05:45:00.266Z,101811.98
2018-09-13T05:47:29.571Z,101813.63
2018-09-13T05:49:58.794Z,101818.75
2018-09-13T05:52:28.259Z,101811.03
2018-09-13T05:54:57.523Z,101798.42
2018-09-13T05:57:26.701Z,101788.50
2018-09-13T05:59:55.751Z,101801.66
2018-09-13T06:02:25.022Z,101816.26
2018-09-13T06:04:54.170Z,101814.42
2018-09-13T06:07:23.219Z,101822.17
2018-09-13T06:09:52.262Z,101824.38
2018-09-13T06:12:21.246Z,101837.19
2018-09-13T06:14:50.322Z,101841.80
2018-09-13T06:17:19.342Z,101846.94
2018-09-13T06:19:48.403Z,101847.70
2018-09-13T06:22:17.422Z,101848.82
2018-09-13T06:24:46.963Z,101836.84
2018-09-13T06:27:16.091Z,101829.00
2018-09-13T06:29:45.099Z,101826.39
2018-09-13T06:32:14.519Z,101819.09
2018-09-13T06:34:43.833Z,101816.43
2018-09-13T06:37:12.924Z,101831.41
2018-09-13T06:39:41.926Z,101826.20
2018-09-13T06:42:11.151Z,101824.16
2018-09-13T06:44:40.431Z,101826.81
2018-09-13T06:47:09.528Z,101837.73
2018-09-13T06:49:38.934Z,101837.30
2018-09-13T06:52:08.156Z,101856.30
2018-09-13T06:54:37.239Z,101860.43
2018-09-13T06:57:06.384Z,101855.28
2018-09-13T06:59:35.431Z,101852.14
2018-09-13T07:02:04.652Z,101856.81
2018-09-13T07:04:34.081Z,101852.89
2018-09-13T07:07:03.174Z,101854.50
2018-09-13T07:09:32.398Z,101859.30
2018-09-13T07:12:01.473Z,101862.95
2018-09-13T07:14:31.037Z,101853.42
2018-09-13T07:17:00.382Z,101851.02
2018-09-13T07:19:29.808Z,101858.69
2018-09-13T07:21:59.857Z,101857.87
2018-09-13T07:24:28.895Z,101855.72
2018-09-13T07:26:58.425Z,101847.70
2018-09-13T07:29:27.487Z,101850.12
2018-09-13T07:31:56.732Z,101845.36
2018-09-13T07:34:26.066Z,101854.25
2018-09-13T07:36:55.274Z,101849.76
2018-09-13T07:39:24.581Z,101850.03
2018-09-13T07:41:53.636Z,101850.24
2018-09-13T07:44:22.655Z,101843.95
2018-09-13T07:46:51.661Z,101851.22
2018-09-13T07:49:21.122Z,101847.90
2018-09-13T07:51:50.711Z,101859.32
2018-09-13T07:54:19.712Z,101854.36
2018-09-13T07:56:48.753Z,101848.39
2018-09-13T07:59:17.750Z,101864.36
2018-09-13T08:01:47.367Z,101859.92
2018-09-13T08:04:16.579Z,101862.73
2018-09-13T08:06:45.747Z,101859.61
2018-09-13T08:09:15.374Z,101866.93
2018-09-13T08:11:44.563Z,101864.80
2018-09-13T08:14:13.648Z,101860.52
2018-09-13T08:16:42.660Z,101857.77
2018-09-13T08:19:12.057Z,101855.41
2018-09-13T08:21:43.019Z,101848.14
2018-09-13T08:24:11.982Z,101854.70
2018-09-13T08:26:41.005Z,101862.52
2018-09-13T08:29:10.102Z,101862.88
2018-09-13T08:31:39.623Z,101861.94
2018-09-13T08:34:08.784Z,101842.95
2018-09-13T08:36:38.377Z,101842.97
2018-09-13T08:39:10.636Z,101855.52
2018-09-13T08:41:39.817Z,101862.25
2018-09-13T08:44:09.078Z,101867.02
2018-09-13T08:46:38.986Z,101866.20
2018-09-13T08:49:07.999Z,101849.43
2018-09-13T08:51:37.355Z,101837.76
2018-09-13T08:54:06.606Z,101848.83
2018-09-13T08:56:36.250Z,101850.30
2018-09-13T08:59:05.262Z,101844.32
2018-09-13T09:01:34.850Z,101851.81
2018-09-13T09:04:03.894Z,101854.09
2018-09-13T09:06:33.222Z,101858.11
2018-09-13T09:09:02.488Z,101858.52
2018-09-13T09:11:31.790Z,101851.09
2018-09-13T09:14:01.102Z,101848.09
2018-09-13T09:16:30.524Z,101847.98
2018-09-13T09:18:59.604Z,101846.06
2018-09-13T09:21:28.928Z,101848.80
2018-09-13T09:23:58.065Z,101859.41
2018-09-13T09:26:27.624Z,101856.84
2018-09-13T09:28:56.864Z,101861.47
2018-09-13T09:31:25.873Z,101863.45
2018-09-13T09:33:55.190Z,101864.28
2018-09-13T09:36:24.554Z,101863.66
2018-09-13T09:38:53.782Z,101862.61
2018-09-13T09:41:23.413Z,101861.29
2018-09-13T09:43:52.636Z,101857.06
2018-09-13T09:46:21.850Z,101851.36
2018-09-13T09:48:51.085Z,101845.70
2018-09-13T09:51:20.106Z,101842.64
2018-09-13T09:53:49.384Z,101841.20
2018-09-13T09:56:18.832Z,101852.95
2018-09-13T09:58:48.268Z,101849.81
2018-09-13T10:01:22.693Z,101850.14
2018-09-13T10:03:52.113Z,101844.98
2018-09-13T10:06:21.299Z,101840.34
2018-09-13T10:08:50.812Z,101839.16
2018-09-13T10:11:19.816Z,101840.70
2018-09-13T10:13:49.049Z,101834.98
2018-09-13T10:16:23.473Z,101835.30
2018-09-13T10:18:57.667Z,101825.80
2018-09-13T10:21:32.050Z,101828.97
2018-09-13T10:24:06.274Z,101824.70
2018-09-13T10:26:40.569Z,101821.48
2018-09-13T10:30:14.727Z,101819.27
2018-09-13T10:32:49.042Z,101813.61
2018-09-13T10:35:23.359Z,101809.69
2018-09-13T10:37:57.974Z,101810.71
2018-09-13T10:40:32.380Z,101821.05
2018-09-13T10:43:06.868Z,101826.16
2018-09-13T10:45:41.246Z,101818.91
2018-09-13T10:48:15.719Z,101811.72
2018-09-13T10:50:48.678Z,101816.30
2018-09-13T10:53:24.728Z,101808.78
2018-09-13T10:55:53.962Z,101797.92
2018-09-13T10:58:22.915Z,101807.06
2018-09-13T11:00:52.156Z,101806.58
2018-09-13T11:03:21.418Z,101804.25
2018-09-13T11:05:50.403Z,101805.52
2018-09-13T11:08:19.645Z,101806.37
2018-09-13T11:10:48.704Z,101797.45
2018-09-13T11:13:23.228Z,101799.97
2018-09-13T11:15:52.411Z,101789.06
2018-09-13T11:18:21.502Z,101785.75
2018-09-13T11:20:50.498Z,101791.59
2018-09-13T11:23:19.757Z,101790.84
2018-09-13T11:25:48.742Z,101783.70
2018-09-13T11:28:18.438Z,101778.77
2018-09-13T11:30:51.803Z,101773.48
2018-09-13T11:33:20.899Z,101787.62
2018-09-13T11:35:49.885Z,101784.61
2018-09-13T11:38:18.887Z,101777.91
2018-09-13T11:40:48.066Z,101790.73
2018-09-13T11:43:16.924Z,101788.81
2018-09-13T11:45:46.431Z,101784.86
2018-09-13T11:48:15.631Z,101786.63
2018-09-13T11:50:44.891Z,101777.53
2018-09-13T11:53:13.900Z,101786.11
2018-09-13T11:55:44.744Z,101785.26
2018-09-13T11:58:15.210Z,101791.45
2018-09-13T12:00:44.425Z,101784.09
2018-09-13T12:03:14.561Z,101786.47
2018-09-13T12:05:43.601Z,101784.70
2018-09-13T12:08:13.013Z,101785.06
2018-09-13T12:10:41.999Z,101775.72
2018-09-13T12:13:11.243Z,101782.31
2018-09-13T12:15:40.247Z,101773.57
2018-09-13T12:18:09.307Z,101778.66
2018-09-13T12:20:38.284Z,101771.85
2018-09-13T12:23:07.296Z,101768.89
2018-09-13T12:25:36.971Z,101765.85
2018-09-13T12:28:06.579Z,101760.14
2018-09-13T12:30:35.711Z,101760.53
2018-09-13T12:33:04.773Z,101761.05
2018-09-13T12:35:34.102Z,101766.72
2018-09-13T12:38:03.900Z,101760.59
2018-09-13T12:40:33.122Z,101756.64
2018-09-13T12:43:02.135Z,101758.05
2018-09-13T12:45:31.503Z,101745.81
2018-09-13T12:48:00.754Z,101750.22
2018-09-13T12:50:29.795Z,101737.66
2018-09-13T12:52:59.011Z,101741.98
2018-09-13T12:55:33.866Z,101737.65
2018-09-13T12:58:03.233Z,101734.59
2018-09-13T13:00:32.267Z,101738.09
2018-09-13T13:03:02.167Z,101724.19
2018-09-13T13:05:31.249Z,101717.13
2018-09-13T13:08:00.585Z,101723.77
2018-09-13T13:10:29.783Z,101717.70
2018-09-13T13:12:59.321Z,101711.27
2018-09-13T13:15:28.820Z,101711.19
2018-09-13T13:17:57.846Z,101709.44
2018-09-13T13:20:27.353Z,101697.15
2018-09-13T13:22:56.752Z,101702.06
2018-09-13T13:25:26.245Z,101709.02
2018-09-13T13:27:55.580Z,101704.64
2018-09-13T13:30:24.975Z,101695.19
2018-09-13T13:32:54.555Z,101692.77
2018-09-13T13:35:23.556Z,101689.63
2018-09-13T13:37:53.123Z,101690.33
2018-09-13T13:40:22.253Z,101692.47
2018-09-13T13:42:51.678Z,101698.18
2018-09-13T13:45:20.915Z,101699.91
2018-09-13T13:47:49.906Z,101694.05
2018-09-13T13:50:19.528Z,101690.55
2018-09-13T13:52:48.666Z,101691.71
2018-09-13T13:55:18.059Z,101687.84
2018-09-13T13:57:47.051Z,101680.53
2018-09-13T14:00:16.111Z,101677.14
2018-09-13T14:02:46.532Z,101671.95
2018-09-13T14:05:18.650Z,101682.09
2018-09-13T14:07:49.960Z,101682.10
2018-09-13T14:10:19.627Z,101676.84
2018-09-13T14:12:49.376Z,101678.61
2018-09-13T14:15:19.025Z,101677.09
2018-09-13T14:17:48.072Z,101676.06
2018-09-13T14:20:17.358Z,101677.45
2018-09-13T14:22:46.946Z,101677.59
2018-09-13T14:25:19.101Z,101670.70
2018-09-13T14:27:48.260Z,101678.61
2018-09-13T14:30:18.965Z,101672.09
2018-09-13T14:32:48.939Z,101670.27
2018-09-13T14:35:18.041Z,101666.85
2018-09-13T14:37:47.259Z,101675.13
2018-09-13T14:40:16.468Z,101671.73
2018-09-13T14:42:45.669Z,101669.29
2018-09-13T14:45:14.715Z,101674.30
2018-09-13T14:47:44.852Z,101665.62
2018-09-13T14:50:14.104Z,101657.03
2018-09-13T14:52:43.091Z,101660.17
2018-09-13T14:55:12.291Z,101657.43
2018-09-13T14:57:41.747Z,101658.24
2018-09-13T15:00:10.904Z,101668.64
2018-09-13T15:02:39.879Z,101663.19
2018-09-13T15:05:08.883Z,101661.15
2018-09-13T15:07:37.974Z,101653.33
2018-09-13T15:10:07.049Z,101652.34
2018-09-13T15:12:36.124Z,101657.33
2018-09-13T15:15:05.194Z,101654.31
2018-09-13T15:17:34.340Z,101659.92
2018-09-13T15:20:03.353Z,101654.50
2018-09-13T15:22:32.347Z,101652.48
2018-09-13T15:25:01.656Z,101652.99
2018-09-13T15:27:30.676Z,101657.41
2018-09-13T15:29:59.754Z,101664.77
2018-09-13T15:32:29.302Z,101659.09
2018-09-13T15:34:58.305Z,101652.59
2018-09-13T15:37:27.606Z,101652.12
2018-09-13T15:39:57.200Z,101653.04
2018-09-13T15:42:26.258Z,101659.12
2018-09-13T15:44:55.288Z,101661.16
2018-09-13T15:47:24.320Z,101658.71
2018-09-13T15:49:53.678Z,101652.12
2018-09-13T15:52:22.693Z,101660.39
2018-09-13T15:54:51.683Z,101653.94
2018-09-13T15:57:20.708Z,101659.56
2018-09-13T15:59:49.800Z,101655.68
2018-09-13T16:02:19.040Z,101658.28
2018-09-13T16:04:48.029Z,101658.25
2018-09-13T16:07:17.083Z,101660.87
2018-09-13T16:09:46.314Z,101664.30
2018-09-13T16:12:15.372Z,101662.94
2018-09-13T16:14:45.639Z,101663.46
2018-09-13T16:17:16.066Z,101660.85
2018-09-13T16:19:45.327Z,101661.25
2018-09-13T16:22:15.822Z,101657.73
2018-09-13T16:24:46.059Z,101662.98
2018-09-13T16:27:16.219Z,101657.33
2018-09-13T16:29:45.313Z,101658.22
2018-09-13T16:32:18.448Z,101660.45
2018-09-13T16:34:48.458Z,101656.03
2018-09-13T16:37:22.814Z,101661.28
2018-09-13T16:39:57.461Z,101669.44
2018-09-13T16:42:38.132Z,101661.31
2018-09-13T16:45:08.953Z,101666.08
2018-09-13T16:47:43.790Z,101662.61
2018-09-13T16:50:14.091Z,101665.53
2018-09-13T16:52:44.488Z,101664.34
2018-09-13T16:55:16.357Z,101660.84
2018-09-13T16:57:45.472Z,101662.59
2018-09-13T17:00:14.470Z,101665.64
2018-09-13T17:02:43.499Z,101661.27
2018-09-13T17:05:12.483Z,101659.52
2018-09-13T17:07:41.508Z,101661.72
2018-09-13T17:10:10.712Z,101665.62
2018-09-13T17:12:39.718Z,101666.91
2018-09-13T17:15:08.899Z,101665.20
2018-09-13T17:17:37.886Z,101666.94
2018-09-13T17:20:06.955Z,101668.59
2018-09-13T17:22:35.997Z,101666.52
2018-09-13T17:25:05.018Z,101662.19
2018-09-13T17:27:34.251Z,101664.73
2018-09-13T17:30:03.393Z,101663.84
2018-09-13T17:32:32.712Z,101673.00
2018-09-13T17:35:01.796Z,101665.21
2018-09-13T17:37:30.818Z,101667.79
2018-09-13T17:39:59.834Z,101668.25
2018-09-13T17:42:28.945Z,101667.33
2018-09-13T17:44:57.937Z,101669.84
2018-09-13T17:47:26.982Z,101664.98
2018-09-13T17:49:56.152Z,101672.03
2018-09-13T17:52:25.163Z,101668.66
2018-09-13T17:54:54.686Z,101668.68
2018-09-13T17:57:23.713Z,101670.41
2018-09-13T17:59:52.736Z,101673.84
2018-09-13T18:02:22.020Z,101680.82
2018-09-13T18:04:51.024Z,101671.27
2018-09-13T18:07:20.235Z,101673.46
2018-09-13T18:09:49.693Z,101678.20
2018-09-13T18:12:19.543Z,101682.88
2018-09-13T18:14:50.633Z,101687.62
2018-09-13T18:17:22.413Z,101680.83
2018-09-13T18:19:52.662Z,101685.07
2018-09-13T18:22:22.116Z,101688.52
2018-09-13T18:24:52.447Z,101692.51
2018-09-13T18:27:22.296Z,101683.23
2018-09-13T18:29:51.346Z,101691.83
2018-09-13T18:32:21.877Z,101692.28
2018-09-13T18:34:52.250Z,101692.76
2018-09-13T18:37:28.874Z,101704.27
2018-09-13T18:39:59.491Z,101697.52
2018-09-13T18:42:30.298Z,101694.94
2018-09-13T18:45:01.487Z,101694.31
2018-09-13T18:47:34.567Z,101688.36
2018-09-13T18:50:05.110Z,101688.45
2018-09-13T18:52:35.377Z,101686.28
2018-09-13T18:55:06.022Z,101685.84
2018-09-13T18:57:36.886Z,101693.34
2018-09-13T19:00:06.201Z,101688.25
2018-09-13T19:02:37.216Z,101692.56
2018-09-13T19:05:08.324Z,101696.83
2018-09-13T19:07:38.893Z,101687.16
2018-09-13T19:10:09.605Z,101684.14
2018-09-13T19:12:40.228Z,101685.55
2018-09-13T19:15:09.829Z,101700.02
2018-09-13T19:17:40.435Z,101690.69
2018-09-13T19:20:10.774Z,101692.67
2018-09-13T19:22:41.216Z,101699.02
2018-09-13T19:25:11.364Z,101692.34
2018-09-13T19:27:40.508Z,101691.91
2018-09-13T19:30:10.741Z,101687.15
2018-09-13T19:32:41.412Z,101692.03
2018-09-13T19:35:11.293Z,101689.41
2018-09-13T19:37:41.580Z,101689.44
2018-09-13T19:40:12.356Z,101690.63
2018-09-13T19:42:41.644Z,101704.03
2018-09-13T19:45:11.980Z,101699.41
2018-09-13T19:47:42.104Z,101700.05
2018-09-13T19:50:11.208Z,101702.28
2018-09-13T19:52:40.342Z,101704.25
2018-09-13T19:55:11.617Z,101698.03
2018-09-13T19:57:41.883Z,101695.42
2018-09-13T20:00:12.944Z,101694.61
2018-09-13T20:02:43.882Z,101691.22
2018-09-13T20:05:13.587Z,101689.27
2018-09-13T20:07:43.695Z,101690.95
2018-09-13T20:10:14.393Z,101694.95
2018-09-13T20:12:44.520Z,101695.20
2018-09-13T20:15:14.401Z,101690.41
2018-09-13T20:17:44.655Z,101694.06
2018-09-13T20:20:14.494Z,101692.13
2018-09-13T20:22:44.744Z,101697.83
2018-09-13T20:25:13.935Z,101685.58
2018-09-13T20:27:44.460Z,101687.87
2018-09-13T20:30:15.433Z,101683.55
2018-09-13T20:32:45.669Z,101698.92
2018-09-13T20:35:15.556Z,101690.86
2018-09-13T20:37:45.817Z,101694.99
2018-09-13T20:40:16.223Z,101685.56
2018-09-13T20:42:45.424Z,101699.64
2018-09-13T20:45:15.477Z,101702.03
2018-09-13T20:47:44.946Z,101700.07
2018-09-13T20:50:15.013Z,101703.28
2018-09-13T20:52:44.720Z,101693.23
2018-09-13T20:55:15.586Z,101693.68
2018-09-13T20:57:44.684Z,101702.56
2018-09-13T21:00:19.660Z,101693.11
2018-09-13T21:02:50.849Z,101698.67
2018-09-13T21:05:20.858Z,101695.64
2018-09-13T21:07:51.133Z,101698.61
2018-09-13T21:10:20.779Z,101694.47
2018-09-13T21:12:50.543Z,101697.18
2018-09-13T21:15:19.667Z,101691.46
2018-09-13T21:17:49.626Z,101694.42
2018-09-13T21:20:19.023Z,101704.37
2018-09-13T21:22:49.033Z,101701.42
2018-09-13T21:25:18.066Z,101699.01
2018-09-13T21:27:47.295Z,101694.67
2018-09-13T21:30:16.320Z,101701.88
2018-09-13T21:32:45.325Z,101699.77
2018-09-13T21:35:14.559Z,101697.19
2018-09-13T21:37:43.619Z,101699.38
2018-09-13T21:40:12.631Z,101705.49
2018-09-13T21:42:41.690Z,101702.45
2018-09-13T21:45:10.876Z,101699.89
2018-09-13T21:47:40.286Z,101714.33
2018-09-13T21:50:09.566Z,101713.83
2018-09-13T21:52:38.926Z,101709.41
2018-09-13T21:55:08.049Z,101710.92
2018-09-13T21:57:37.196Z,101718.61
2018-09-13T22:00:09.228Z,101711.95
2018-09-13T22:02:38.612Z,101712.30
2018-09-13T22:05:07.795Z,101716.60
2018-09-13T22:07:37.500Z,101716.28
2018-09-13T22:10:06.573Z,101713.21
2018-09-13T22:12:35.591Z,101714.59
2018-09-13T22:15:04.647Z,101708.00
2018-09-13T22:17:33.702Z,101713.22
2018-09-13T22:20:02.796Z,101717.06
2018-09-13T22:22:32.033Z,101718.98
2018-09-13T22:25:01.262Z,101718.98
2018-09-13T22:27:30.280Z,101726.76
2018-09-13T22:29:59.536Z,101722.86
2018-09-13T22:32:29.149Z,101718.12
2018-09-13T22:34:58.159Z,101717.70
2018-09-13T22:37:27.279Z,101718.12
2018-09-13T22:39:56.540Z,101723.33
2018-09-13T22:42:25.760Z,101720.72
2018-09-13T22:45:00.427Z,101724.19
2018-09-13T22:47:30.595Z,101722.45
2018-09-13T22:49:59.591Z,101718.13
2018-09-13T22:52:28.843Z,101726.80
2018-09-13T22:54:57.835Z,101722.88
2018-09-13T22:57:27.085Z,101724.63
2018-09-13T22:59:56.238Z,101720.29
2018-09-13T23:02:25.279Z,101731.15
2018-09-13T23:04:54.584Z,101731.16
2018-09-13T23:07:23.727Z,101730.28
2018-09-13T23:09:52.962Z,101729.84
2018-09-13T23:12:22.006Z,101727.25
2018-09-13T23:14:51.236Z,101725.94
2018-09-13T23:17:20.307Z,101724.20
2018-09-13T23:19:50.034Z,101728.11
2018-09-13T23:22:19.058Z,101729.39
2018-09-13T23:24:48.660Z,101725.37
2018-09-13T23:27:17.719Z,101722.02
2018-09-13T23:29:47.099Z,101725.88
2018-09-13T23:53:07.602Z,101727.52
2018-09-13T23:55:36.598Z,101726.73
2018-09-13T23:58:05.675Z,101722.44
